createdAt,value
2023-02-22T00:02:25.098Z,99753.05
2023-02-22T00:07:28.186Z,99752.88
2023-02-22T00:12:32.099Z,99755.20
2023-02-22T00:17:34.685Z,99757.71
2023-02-22T00:22:37.805Z,99762.07
2023-02-22T00:27:44.007Z,99763.66
2023-02-22T00:32:48.342Z,99764.83
2023-02-22T00:37:53.062Z,99762.84
2023-02-22T00:42:55.491Z,99768.42
2023-02-22T00:47:57.843Z,99774.85
2023-02-22T00:53:01.769Z,99780.55
2023-02-22T00:58:05.495Z,99785.58
2023-02-22T01:03:11.355Z,99792.70
2023-02-22T01:08:16.376Z,99802.89
2023-02-22T01:13:19.826Z,99801.13
2023-02-22T01:18:23.385Z,99804.13
2023-02-22T01:23:26.496Z,99809.79
2023-02-22T01:28:29.670Z,99807.86
2023-02-22T01:33:34.177Z,99805.11
2023-02-22T01:38:38.869Z,99808.84
2023-02-22T01:43:42.051Z,99811.15
2023-02-22T01:49:02.166Z,99809.50
2023-02-22T01:54:29.277Z,99813.20
2023-02-22T01:59:37.334Z,99809.71
2023-02-22T02:04:42.602Z,99811.46
2023-02-22T02:09:52.582Z,99812.68
2023-02-22T02:15:17.726Z,99816.23
2023-02-22T02:20:36.913Z,99820.55
2023-02-22T02:26:11.132Z,99823.34
2023-02-22T02:31:19.816Z,99827.79
2023-02-22T02:36:44.956Z,99822.23
2023-02-22T02:41:50.849Z,99829.81
2023-02-22T02:47:01.586Z,99833.12
2023-02-22T02:52:05.917Z,99842.08
2023-02-22T02:57:09.030Z,99842.09
2023-02-22T03:02:21.816Z,99840.41
2023-02-22T03:07:34.816Z,99842.92
2023-02-22T03:13:15.407Z,99847.95
2023-02-22T03:18:40.408Z,99845.70
2023-02-22T03:24:04.248Z,99845.41
2023-02-22T03:29:10.862Z,99845.13
2023-02-22T03:34:22.194Z,99845.67
2023-02-22T03:39:31.506Z,99854.98
2023-02-22T03:44:37.579Z,99862.21
2023-02-22T03:50:07.218Z,99866.05
2023-02-22T03:55:12.526Z,99857.94
2023-02-22T04:00:20.146Z,99864.55
2023-02-22T04:05:25.800Z,99872.46
2023-02-22T04:10:29.906Z,99877.67
2023-02-22T04:15:32.536Z,99878.28
2023-02-22T04:20:35.825Z,99883.05
2023-02-22T04:25:40.050Z,99886.63
2023-02-22T04:30:44.134Z,99889.44
2023-02-22T04:35:46.836Z,99890.89
2023-02-22T04:40:48.997Z,99889.52
2023-02-22T04:45:52.173Z,99894.56
2023-02-22T04:50:55.284Z,99890.96
2023-02-22T04:55:57.981Z,99895.79
2023-02-22T05:01:01.290Z,99895.73
2023-02-22T05:06:03.336Z,99896.20
2023-02-22T05:11:06.514Z,99895.63
2023-02-22T05:16:46.924Z,99898.90
2023-02-22T05:21:50.149Z,99906.77
2023-02-22T05:26:53.492Z,99909.23
2023-02-22T05:31:59.684Z,99914.04
2023-02-22T05:37:04.293Z,99922.57
2023-02-22T05:42:07.246Z,99932.02
2023-02-22T05:47:10.297Z,99940.54
2023-02-22T05:52:13.686Z,99943.65
2023-02-22T05:57:16.708Z,99946.17
2023-02-22T06:02:19.815Z,99948.73
2023-02-22T06:07:23.362Z,99952.80
2023-02-22T06:12:26.529Z,99956.66
2023-02-22T06:17:30.897Z,99961.95
2023-02-22T06:22:33.341Z,99969.50
2023-02-22T06:27:37.292Z,99973.20
2023-02-22T06:32:40.431Z,99976.64
2023-02-22T06:37:43.659Z,99981.61
2023-02-22T06:42:49.767Z,99983.30
2023-02-22T06:47:53.644Z,99992.89
2023-02-22T06:52:59.013Z,99997.48
2023-02-22T06:58:03.710Z,99998.41
2023-02-22T07:03:07.667Z,100001.61
2023-02-22T07:08:11.692Z,100005.55
2023-02-22T07:13:15.068Z,100011.69
2023-02-22T07:18:18.779Z,100013.27
2023-02-22T07:23:24.559Z,100020.73
2023-02-22T07:28:28.837Z,100025.55
2023-02-22T07:33:31.659Z,100027.36
2023-02-22T07:38:34.681Z,100024.76
2023-02-22T07:43:38.326Z,100020.45
2023-02-22T07:48:42.852Z,100016.60
2023-02-22T07:53:46.917Z,100015.73
2023-02-22T07:58:50.803Z,100022.28
2023-02-22T08:03:54.193Z,100015.48
2023-02-22T08:08:58.331Z,100018.77
2023-02-22T08:14:01.298Z,100020.05
2023-02-22T08:19:03.385Z,100027.20
2023-02-22T08:24:07.685Z,100026.46
2023-02-22T08:29:10.986Z,100032.38
2023-02-22T08:34:13.814Z,100028.94
2023-02-22T08:39:17.279Z,100033.26
2023-02-22T08:44:21.498Z,100037.63
2023-02-22T08:49:24.629Z,100036.83
2023-02-22T08:54:28.254Z,100040.67
2023-02-22T08:59:32.114Z,100040.48
2023-02-22T09:04:36.738Z,100041.24
2023-02-22T09:09:42.620Z,100041.23
2023-02-22T09:14:46.165Z,100041.76
2023-02-22T09:19:48.778Z,100037.65
2023-02-22T09:24:53.703Z,100040.56
2023-02-22T09:29:58.482Z,100041.15
2023-02-22T09:35:01.907Z,100042.40
2023-02-22T09:40:10.150Z,100049.55
2023-02-22T09:45:48.787Z,100046.89
2023-02-22T09:50:55.267Z,100043.11
2023-02-22T09:56:07.686Z,100051.31
2023-02-22T10:01:27.860Z,100051.71
2023-02-22T10:06:33.756Z,100054.64
2023-02-22T10:12:00.889Z,100054.90
2023-02-22T10:17:32.012Z,100053.80
2023-02-22T10:22:43.815Z,100057.54
2023-02-22T10:27:57.612Z,100052.08
2023-02-22T10:33:12.176Z,100049.60
2023-02-22T10:38:16.339Z,100048.59
2023-02-22T10:43:20.262Z,100051.62
2023-02-22T10:48:28.383Z,100053.98
2023-02-22T10:53:32.931Z,100052.69
2023-02-22T10:58:47.849Z,100054.15
2023-02-22T11:04:12.656Z,100053.20
2023-02-22T11:09:24.522Z,100054.14
2023-02-22T11:14:31.103Z,100053.38
2023-02-22T11:19:37.037Z,100047.96
2023-02-22T11:24:49.443Z,100051.73
2023-02-22T11:29:53.174Z,100051.33
2023-02-22T11:35:29.076Z,100051.31
2023-02-22T11:40:33.921Z,100053.95
2023-02-22T11:45:49.838Z,100052.89
2023-02-22T11:51:28.148Z,100051.42
2023-02-22T11:56:44.679Z,100050.05
2023-02-22T12:01:57.672Z,100052.20
2023-02-22T12:07:10.724Z,100051.36
2023-02-22T12:12:31.127Z,100048.38
2023-02-22T12:17:43.617Z,100050.41
2023-02-22T12:23:20.365Z,100050.16
2023-02-22T12:28:37.951Z,100045.27
2023-02-22T12:34:01.410Z,100059.24
2023-02-22T12:39:26.763Z,100057.21
2023-02-22T12:44:36.027Z,100054.19
2023-02-22T12:49:43.321Z,100055.13
2023-02-22T12:54:56.352Z,100062.43
2023-02-22T13:00:12.113Z,100064.25
2023-02-22T13:05:20.968Z,100066.20
2023-02-22T13:10:34.536Z,100069.83
2023-02-22T13:15:59.885Z,100065.33
2023-02-22T13:21:30.604Z,100066.68
2023-02-22T13:26:39.846Z,100064.09
2023-02-22T13:32:20.833Z,100062.16
2023-02-22T13:38:01.189Z,100058.71
2023-02-22T13:43:25.506Z,100061.52
2023-02-22T13:48:38.961Z,100063.27
2023-02-22T13:53:56.314Z,100069.20
2023-02-22T13:59:03.671Z,100072.95
2023-02-22T14:04:24.657Z,100071.75
2023-02-22T14:09:49.076Z,100076.29
2023-02-22T14:15:29.768Z,100074.76
2023-02-22T14:20:40.141Z,100070.50
2023-02-22T14:25:44.553Z,100073.95
2023-02-22T14:30:49.158Z,100076.16
2023-02-22T14:35:55.849Z,100077.39
2023-02-22T14:41:03.096Z,100084.14
2023-02-22T14:46:13.428Z,100078.86
2023-02-22T14:51:26.951Z,100076.05
2023-02-22T14:56:54.310Z,100075.59
2023-02-22T15:02:15.367Z,100082.74
2023-02-22T15:07:27.904Z,100086.70
2023-02-22T15:12:31.875Z,100089.98
2023-02-22T15:17:35.014Z,100088.02
2023-02-22T15:22:38.746Z,100091.99
2023-02-22T15:27:47.555Z,100087.36
2023-02-22T15:33:03.549Z,100089.28
2023-02-22T15:38:13.507Z,100092.30
2023-02-22T15:43:25.751Z,100093.13
2023-02-22T15:48:32.232Z,100089.59
2023-02-22T15:53:45.291Z,100088.04
2023-02-22T15:58:54.227Z,100088.22
2023-02-22T16:03:59.088Z,100092.20
2023-02-22T16:09:25.558Z,100099.22
2023-02-22T16:14:30.204Z,100108.33
2023-02-22T16:19:42.649Z,100108.47
2023-02-22T16:24:52.192Z,100123.36
2023-02-22T16:30:29.598Z,100130.16
2023-02-22T16:35:35.200Z,100129.42
2023-02-22T16:40:44.798Z,100135.80
2023-02-22T16:45:48.464Z,100145.55
2023-02-22T16:50:54.007Z,100151.67
2023-02-22T16:56:03.242Z,100152.50
2023-02-22T17:01:06.634Z,100149.41
2023-02-22T17:06:12.568Z,100142.11
2023-02-22T17:11:16.989Z,100147.55
2023-02-22T17:16:22.170Z,100151.87
2023-02-22T17:21:25.912Z,100150.34
2023-02-22T17:26:30.030Z,100154.56
2023-02-22T17:31:35.359Z,100157.06
2023-02-22T17:36:38.360Z,100152.39
2023-02-22T17:41:41.787Z,100153.81
2023-02-22T17:46:45.544Z,100150.46
2023-02-22T17:51:49.869Z,100155.75
2023-02-22T17:56:56.789Z,100160.86
2023-02-22T18:02:01.885Z,100160.39
2023-02-22T18:07:06.077Z,100160.95
2023-02-22T18:12:10.948Z,100166.49
2023-02-22T18:17:14.623Z,100166.77
2023-02-22T18:22:20.388Z,100173.71
2023-02-22T18:27:25.613Z,100177.98
2023-02-22T18:32:31.991Z,100181.19
2023-02-22T18:37:35.202Z,100181.09
2023-02-22T18:42:39.520Z,100181.28
2023-02-22T18:47:43.384Z,100189.48
2023-02-22T18:52:46.640Z,100191.84
2023-02-22T18:57:56.468Z,100188.66
2023-02-22T19:03:00.597Z,100192.53
2023-02-22T19:08:04.520Z,100186.04
2023-02-22T19:13:11.523Z,100187.82
2023-02-22T19:18:16.946Z,100188.36
2023-02-22T19:23:20.097Z,100183.02
2023-02-22T19:28:29.031Z,100187.55
2023-02-22T19:33:32.333Z,100190.15
2023-02-22T19:38:37.451Z,100192.84
2023-02-22T19:43:41.532Z,100195.91
2023-02-22T19:48:46.536Z,100197.05
2023-02-22T19:53:50.247Z,100203.88
2023-02-22T19:58:56.246Z,100205.42
2023-02-22T20:04:03.770Z,100204.58
2023-02-22T20:09:20.763Z,100205.02
2023-02-22T20:14:28.852Z,100204.64
2023-02-22T20:19:33.101Z,100206.99
2023-02-22T20:24:38.032Z,100206.92
2023-02-22T20:29:42.444Z,100209.21
2023-02-22T20:34:47.102Z,100204.65
2023-02-22T20:39:54.890Z,100205.75
2023-02-22T20:45:01.606Z,100204.95
2023-02-22T20:50:06.062Z,100204.58
2023-02-22T20:55:11.837Z,100201.85
2023-02-22T21:00:19.266Z,100197.14
2023-02-22T21:05:22.342Z,100193.63
2023-02-22T21:10:29.940Z,100187.27
2023-02-22T21:15:35.235Z,100184.77
2023-02-22T21:20:41.842Z,100181.18
2023-02-22T21:25:51.729Z,100177.89
2023-02-22T21:30:55.170Z,100176.65
2023-02-22T21:35:57.535Z,100180.23
2023-02-22T21:41:03.094Z,100184.13
2023-02-22T21:46:07.668Z,100176.86
2023-02-22T21:51:23.333Z,100180.08
2023-02-22T21:56:29.685Z,100173.36
2023-02-22T22:01:36.956Z,100167.27
2023-02-22T22:06:39.232Z,100173.90
2023-02-22T22:11:42.301Z,100178.35
2023-02-22T22:16:50.217Z,100175.80
2023-02-22T22:21:53.955Z,100173.64
2023-02-22T22:26:56.251Z,100175.61
2023-02-22T22:31:59.069Z,100178.21
2023-02-22T22:37:02.741Z,100169.03
2023-02-22T22:42:05.465Z,100161.61
2023-02-22T22:47:12.973Z,100157.83
2023-02-22T22:52:16.247Z,100162.04
2023-02-22T22:57:19.623Z,100166.13
2023-02-22T23:02:24.641Z,100166.54
2023-02-22T23:07:28.420Z,100170.95
2023-02-22T23:12:31.585Z,100169.18
2023-02-22T23:17:41.025Z,100174.94
2023-02-22T23:22:47.475Z,100171.27
2023-02-22T23:27:51.291Z,100175.09
2023-02-22T23:33:00.695Z,100168.77
2023-02-22T23:38:08.362Z,100168.53
2023-02-22T23:43:12.995Z,100165.09
2023-02-22T23:48:20.752Z,100166.41
2023-02-22T23:53:26.073Z,100158.41
2023-02-22T23:58:30.280Z,100155.77
